createdAt,value
2022-12-03T00:01:53.891Z,12.97
2022-12-03T00:04:20.971Z,14.70
2022-12-03T00:06:47.815Z,14.70
2022-12-03T00:09:14.706Z,15.00
2022-12-03T00:11:41.534Z,15.80
2022-12-03T00:14:08.311Z,15.03
2022-12-03T00:16:35.232Z,15.07
2022-12-03T00:19:02.122Z,14.57
2022-12-03T00:21:29.494Z,14.87
2022-12-03T00:23:56.329Z,13.57
2022-12-03T00:26:23.173Z,12.70
2022-12-03T00:28:51.249Z,14.23
2022-12-03T00:31:18.774Z,14.07
2022-12-03T00:33:45.643Z,16.27
2022-12-03T00:36:12.503Z,14.87
2022-12-03T00:38:39.287Z,16.07
2022-12-03T00:41:06.369Z,15.30
2022-12-03T00:43:33.198Z,14.50
2022-12-03T00:46:01.166Z,14.30
2022-12-03T00:48:28.069Z,14.80
2022-12-03T00:50:54.918Z,14.83
2022-12-03T00:53:21.741Z,14.80
2022-12-03T00:55:50.593Z,14.47
2022-12-03T00:58:18.443Z,16.33
2022-12-03T01:00:45.226Z,15.00
2022-12-03T01:03:12.098Z,15.20
2022-12-03T01:05:38.977Z,14.73
2022-12-03T01:08:06.001Z,15.90
2022-12-03T01:10:32.816Z,15.80
2022-12-03T01:12:59.619Z,15.80
2022-12-03T01:15:27.318Z,14.90
2022-12-03T01:17:54.265Z,16.03
2022-12-03T01:20:21.222Z,15.33
2022-12-03T01:22:48.063Z,15.43
2022-12-03T01:25:15.072Z,17.43
2022-12-03T01:27:41.969Z,15.23
2022-12-03T01:30:10.959Z,15.23
2022-12-03T01:32:37.770Z,14.97
2022-12-03T01:35:05.714Z,15.13
2022-12-03T01:37:32.812Z,14.63
2022-12-03T01:39:59.682Z,16.00
2022-12-03T01:42:35.496Z,15.97
2022-12-03T01:45:03.046Z,16.07
2022-12-03T01:47:36.968Z,15.97
2022-12-03T01:50:11.332Z,16.80
2022-12-03T01:52:40.723Z,17.10
2022-12-03T01:55:17.111Z,17.83
2022-12-03T01:57:59.142Z,16.40
2022-12-03T02:00:28.134Z,16.37
2022-12-03T02:03:03.699Z,15.97
2022-12-03T02:05:33.613Z,15.97
2022-12-03T02:08:01.225Z,14.97
2022-12-03T02:10:37.532Z,17.50
2022-12-03T02:13:10.231Z,17.73
2022-12-03T02:15:40.309Z,16.83
2022-12-03T02:18:09.342Z,16.87
2022-12-03T02:21:13.031Z,17.00
2022-12-03T02:24:19.604Z,16.47
2022-12-03T02:26:46.503Z,17.30
2022-12-03T02:29:13.450Z,18.03
2022-12-03T02:31:40.400Z,17.77
2022-12-03T02:34:08.432Z,18.90
2022-12-03T02:36:37.761Z,18.03
2022-12-03T02:39:06.337Z,18.57
2022-12-03T02:41:52.155Z,17.40
2022-12-03T02:44:19.360Z,18.47
2022-12-03T02:46:46.240Z,17.27
2022-12-03T02:49:13.580Z,16.33
2022-12-03T02:51:40.526Z,16.70
2022-12-03T02:54:08.212Z,16.10
2022-12-03T02:56:35.102Z,16.60
2022-12-03T02:59:05.181Z,16.47
2022-12-03T03:01:32.606Z,16.47
2022-12-03T03:04:00.676Z,19.17
2022-12-03T03:06:27.611Z,17.17
2022-12-03T03:09:10.025Z,16.93
2022-12-03T03:11:36.998Z,18.10
2022-12-03T03:14:04.048Z,18.63
2022-12-03T03:16:32.892Z,16.40
2022-12-03T03:19:00.323Z,18.97
2022-12-03T03:21:27.237Z,18.33
2022-12-03T03:23:54.103Z,19.00
2022-12-03T03:26:21.021Z,18.53
2022-12-03T03:28:51.858Z,17.53
2022-12-03T03:31:23.615Z,18.40
2022-12-03T03:33:51.531Z,17.83
2022-12-03T03:36:20.075Z,19.80
2022-12-03T03:38:47.863Z,19.90
2022-12-03T03:41:15.845Z,17.77
2022-12-03T03:43:45.523Z,19.00
2022-12-03T03:46:14.632Z,18.97
2022-12-03T03:48:43.851Z,17.10
2022-12-03T03:51:12.814Z,18.27
2022-12-03T03:53:45.684Z,18.73
2022-12-03T03:56:13.209Z,19.87
2022-12-03T03:58:40.217Z,17.87
2022-12-03T04:01:08.724Z,18.33
2022-12-03T04:03:35.637Z,18.67
2022-12-03T04:06:04.445Z,19.57
2022-12-03T04:08:31.839Z,18.13
2022-12-03T04:11:17.519Z,18.70
2022-12-03T04:13:44.380Z,17.87
2022-12-03T04:16:11.189Z,19.00
2022-12-03T04:18:43.861Z,17.87
2022-12-03T04:21:38.017Z,18.50
2022-12-03T04:24:07.336Z,17.50
2022-12-03T04:26:53.099Z,17.30
2022-12-03T04:29:21.504Z,17.40
2022-12-03T04:32:07.191Z,18.37
2022-12-03T04:34:53.053Z,18.87
2022-12-03T04:37:20.376Z,19.50
2022-12-03T04:39:47.206Z,18.70
2022-12-03T04:42:14.290Z,17.63
2022-12-03T04:44:41.121Z,20.10
2022-12-03T04:47:17.689Z,19.37
2022-12-03T04:49:51.130Z,17.47
2022-12-03T04:52:20.147Z,19.70
2022-12-03T04:54:47.229Z,20.07
2022-12-03T04:57:14.257Z,19.50
2022-12-03T04:59:41.374Z,19.47
2022-12-03T05:02:08.595Z,19.23
2022-12-03T05:04:35.547Z,19.57
2022-12-03T05:07:02.527Z,18.70
2022-12-03T05:09:29.547Z,17.10
2022-12-03T05:11:56.415Z,19.23
2022-12-03T05:14:23.429Z,19.60
2022-12-03T05:16:50.401Z,21.10
2022-12-03T05:19:17.245Z,19.13
2022-12-03T05:21:44.121Z,18.13
2022-12-03T05:24:10.989Z,22.27
2022-12-03T05:26:37.859Z,20.73
2022-12-03T05:29:04.683Z,18.13
2022-12-03T05:31:31.620Z,19.00
2022-12-03T05:33:58.450Z,18.10
2022-12-03T05:36:25.569Z,20.53
2022-12-03T05:38:52.406Z,20.23
2022-12-03T05:41:38.554Z,20.83
2022-12-03T05:44:05.516Z,18.90
2022-12-03T05:46:32.884Z,21.03
2022-12-03T05:48:59.926Z,22.73
2022-12-03T05:51:26.762Z,22.63
2022-12-03T05:53:53.629Z,20.83
2022-12-03T05:56:20.435Z,20.13
2022-12-03T05:58:47.273Z,19.17
2022-12-03T06:01:14.078Z,21.67
2022-12-03T06:03:41.199Z,21.33
2022-12-03T06:06:08.116Z,20.53
2022-12-03T06:08:34.924Z,18.77
2022-12-03T06:11:01.734Z,20.43
2022-12-03T06:13:28.607Z,19.97
2022-12-03T06:15:55.467Z,20.43
2022-12-03T06:18:22.360Z,20.60
2022-12-03T06:20:49.246Z,21.43
2022-12-03T06:23:16.198Z,20.80
2022-12-03T06:25:43.024Z,21.53
2022-12-03T06:28:09.846Z,19.30
2022-12-03T06:30:36.682Z,19.67
2022-12-03T06:33:03.686Z,18.63
2022-12-03T06:35:30.515Z,18.23
2022-12-03T06:37:57.396Z,20.47
2022-12-03T06:40:25.040Z,20.47
2022-12-03T06:42:52.271Z,20.33
2022-12-03T06:45:19.285Z,19.90
2022-12-03T06:47:46.322Z,18.80
2022-12-03T06:50:13.853Z,20.70
2022-12-03T06:52:40.926Z,19.17
2022-12-03T06:55:09.170Z,19.87
2022-12-03T06:57:36.116Z,18.90
2022-12-03T07:00:06.462Z,19.97
2022-12-03T07:02:33.377Z,19.93
2022-12-03T07:05:00.318Z,19.17
2022-12-03T07:07:27.246Z,19.60
2022-12-03T07:09:54.246Z,20.30
2022-12-03T07:12:21.174Z,20.13
2022-12-03T07:14:48.153Z,19.57
2022-12-03T07:17:14.968Z,18.60
2022-12-03T07:19:42.874Z,20.60
2022-12-03T07:22:09.811Z,19.67
2022-12-03T07:24:36.600Z,20.27
2022-12-03T07:27:03.638Z,18.80
2022-12-03T07:29:30.592Z,20.10
2022-12-03T07:31:57.485Z,19.20
2022-12-03T07:34:24.361Z,20.90
2022-12-03T07:36:51.200Z,19.40
2022-12-03T07:39:18.120Z,18.90
2022-12-03T07:41:45.114Z,19.00
2022-12-03T07:44:14.789Z,21.13
2022-12-03T07:46:43.008Z,18.33
2022-12-03T07:49:10.187Z,19.93
2022-12-03T07:51:37.099Z,20.63
2022-12-03T07:54:04.987Z,21.00
2022-12-03T07:56:32.145Z,17.70
2022-12-03T07:58:58.934Z,18.40
2022-12-03T08:01:26.013Z,17.70
2022-12-03T08:03:52.907Z,18.53
2022-12-03T08:06:19.768Z,19.20
2022-12-03T08:08:46.580Z,18.47
2022-12-03T08:11:14.886Z,18.53
2022-12-03T08:13:41.753Z,19.77
2022-12-03T08:16:18.667Z,18.73
2022-12-03T08:18:47.529Z,19.57
2022-12-03T08:21:21.376Z,18.77
2022-12-03T08:23:48.448Z,18.10
2022-12-03T08:26:28.156Z,18.93
2022-12-03T08:28:55.190Z,18.00
2022-12-03T08:31:32.446Z,18.50
2022-12-03T08:34:24.427Z,18.93
2022-12-03T08:36:59.642Z,17.30
2022-12-03T08:39:46.974Z,17.27
2022-12-03T08:42:42.115Z,20.60
2022-12-03T08:45:40.364Z,20.33
2022-12-03T08:48:39.252Z,18.77
2022-12-03T08:51:25.041Z,16.80
2022-12-03T08:54:01.833Z,15.77
2022-12-03T08:56:36.748Z,17.97
2022-12-03T08:59:32.090Z,17.47
2022-12-03T09:01:59.874Z,16.90
2022-12-03T09:04:35.931Z,17.77
2022-12-03T09:07:03.025Z,16.77
2022-12-03T09:09:30.106Z,16.50
2022-12-03T09:11:57.010Z,15.40
2022-12-03T09:14:24.120Z,15.53
2022-12-03T09:16:56.226Z,17.17
2022-12-03T09:19:26.912Z,15.50
2022-12-03T09:21:54.652Z,15.40
2022-12-03T09:24:22.039Z,15.87
2022-12-03T09:26:49.376Z,13.53
2022-12-03T09:29:16.230Z,13.37
2022-12-03T09:31:43.093Z,13.77
2022-12-03T09:34:11.078Z,14.10
2022-12-03T09:36:37.961Z,15.80
2022-12-03T09:39:05.294Z,14.77
2022-12-03T09:41:32.276Z,15.40
2022-12-03T09:44:08.595Z,16.10
2022-12-03T09:46:40.119Z,15.90
2022-12-03T09:49:15.818Z,16.10
2022-12-03T09:51:45.291Z,15.27
2022-12-03T09:54:24.458Z,15.77
2022-12-03T09:56:54.885Z,14.20
2022-12-03T09:59:35.107Z,15.60
2022-12-03T10:02:03.467Z,17.00
2022-12-03T10:04:30.830Z,17.50
2022-12-03T10:06:58.949Z,17.33
2022-12-03T10:09:29.047Z,16.57
2022-12-03T10:11:59.695Z,16.27
2022-12-03T10:14:27.700Z,16.07
2022-12-03T10:16:55.588Z,16.90
2022-12-03T10:19:30.295Z,16.07
2022-12-03T10:21:58.273Z,15.87
2022-12-03T10:24:26.464Z,16.43
2022-12-03T10:26:57.709Z,14.87
2022-12-03T10:29:34.376Z,13.73
2022-12-03T10:32:10.477Z,14.53
2022-12-03T10:34:42.502Z,15.97
2022-12-03T10:37:21.464Z,17.30
2022-12-03T10:39:56.452Z,16.57
2022-12-03T10:42:25.439Z,13.70
2022-12-03T10:45:23.059Z,15.47
2022-12-03T10:48:13.785Z,13.97
2022-12-03T10:50:53.050Z,15.60
2022-12-03T10:53:28.585Z,14.23
2022-12-03T10:55:59.392Z,13.83
2022-12-03T10:58:30.061Z,14.97
2022-12-03T11:01:03.425Z,15.40
2022-12-03T11:03:36.006Z,15.60
2022-12-03T11:06:03.856Z,15.70
2022-12-03T11:08:35.664Z,15.37
2022-12-03T11:11:07.981Z,16.37
2022-12-03T11:13:34.756Z,16.87
2022-12-03T11:16:05.220Z,15.73
2022-12-03T11:18:57.686Z,15.87
2022-12-03T11:21:25.211Z,15.83
2022-12-03T11:24:15.577Z,16.43
2022-12-03T11:26:42.299Z,15.30
2022-12-03T11:29:15.472Z,14.77
2022-12-03T11:31:48.141Z,15.40
2022-12-03T11:34:21.038Z,16.63
2022-12-03T11:37:09.458Z,17.10
2022-12-03T11:39:47.835Z,15.73
2022-12-03T11:42:26.270Z,16.63
2022-12-03T11:45:05.312Z,17.20
2022-12-03T11:48:02.381Z,15.83
2022-12-03T11:50:53.646Z,15.57
2022-12-03T11:53:26.082Z,15.47
2022-12-03T11:56:08.776Z,15.70
2022-12-03T11:58:42.252Z,15.73
2022-12-03T12:01:09.871Z,15.20
2022-12-03T12:03:36.664Z,17.70
2022-12-03T12:06:12.705Z,15.80
2022-12-03T12:08:59.900Z,16.63
2022-12-03T12:11:43.707Z,17.20
2022-12-03T12:14:13.358Z,16.90
2022-12-03T12:16:55.193Z,16.40
2022-12-03T12:19:41.209Z,16.43
2022-12-03T12:22:24.829Z,17.00
2022-12-03T12:24:56.461Z,15.63
2022-12-03T12:27:47.343Z,18.77
2022-12-03T12:30:21.715Z,19.33
2022-12-03T12:33:07.345Z,17.60
2022-12-03T12:35:34.193Z,17.10
2022-12-03T12:38:06.181Z,17.93
2022-12-03T12:40:40.426Z,19.33
2022-12-03T12:43:30.710Z,17.50
2022-12-03T12:46:39.068Z,20.73
2022-12-03T12:48:59.876Z,17.80
2022-12-03T12:51:26.935Z,20.20
2022-12-03T12:53:53.903Z,18.30
2022-12-03T12:56:30.246Z,18.57
2022-12-03T12:59:11.165Z,19.00
2022-12-03T13:01:38.957Z,18.17
2022-12-03T13:04:16.524Z,17.90
2022-12-03T13:06:45.109Z,17.57
2022-12-03T13:09:25.077Z,17.80
2022-12-03T13:11:58.346Z,19.83
2022-12-03T13:14:31.749Z,18.90
2022-12-03T13:17:02.041Z,20.00
2022-12-03T13:19:43.339Z,20.40
2022-12-03T13:22:19.649Z,19.13
2022-12-03T13:24:56.009Z,19.10
2022-12-03T13:27:29.630Z,19.03
2022-12-03T13:30:20.921Z,20.47
2022-12-03T13:32:47.887Z,20.00
2022-12-03T13:35:35.388Z,20.67
2022-12-03T13:38:13.509Z,21.10
2022-12-03T13:40:41.479Z,23.67
2022-12-03T13:43:16.521Z,20.53
2022-12-03T13:45:46.977Z,19.50
2022-12-03T13:48:28.712Z,19.27
2022-12-03T13:50:56.063Z,19.60
2022-12-03T13:53:28.099Z,20.33
2022-12-03T13:56:30.461Z,19.90
2022-12-03T13:59:00.319Z,19.67
2022-12-03T14:01:28.569Z,22.73
2022-12-03T14:03:56.363Z,20.70
2022-12-03T14:06:23.225Z,20.87
2022-12-03T14:08:50.149Z,20.17
2022-12-03T14:11:35.786Z,21.43
2022-12-03T14:14:02.963Z,21.67
2022-12-03T14:16:29.799Z,19.93
2022-12-03T14:18:56.711Z,20.50
2022-12-03T14:21:23.528Z,19.60
2022-12-03T14:23:50.374Z,21.53
2022-12-03T14:26:17.255Z,20.57
2022-12-03T14:28:44.094Z,19.70
2022-12-03T14:31:10.875Z,19.97
2022-12-03T14:33:37.850Z,20.33
2022-12-03T14:36:05.073Z,20.07
2022-12-03T14:38:31.988Z,22.83
2022-12-03T14:40:58.790Z,19.47
2022-12-03T14:43:25.667Z,21.67
2022-12-03T14:45:52.472Z,19.57
2022-12-03T14:48:21.013Z,21.13
2022-12-03T14:50:47.844Z,21.23
2022-12-03T14:53:14.702Z,20.70
2022-12-03T14:55:41.585Z,21.80
2022-12-03T14:58:08.390Z,21.43
2022-12-03T15:00:35.271Z,22.07
2022-12-03T15:03:02.203Z,20.90
2022-12-03T15:05:29.313Z,19.77
2022-12-03T15:07:56.628Z,21.30
2022-12-03T15:10:23.520Z,19.90
2022-12-03T15:12:50.369Z,21.30
2022-12-03T15:15:17.153Z,22.13
2022-12-03T15:17:45.801Z,20.07
2022-12-03T15:20:13.152Z,18.50
2022-12-03T15:22:40.037Z,18.80
2022-12-03T15:25:07.988Z,18.47
2022-12-03T15:27:34.827Z,18.70
2022-12-03T15:30:01.710Z,18.43
2022-12-03T15:32:28.744Z,19.63
2022-12-03T15:34:55.516Z,19.83
2022-12-03T15:37:22.406Z,18.37
2022-12-03T15:39:49.378Z,19.53
2022-12-03T15:42:17.191Z,20.47
2022-12-03T15:44:45.907Z,19.10
2022-12-03T15:47:12.766Z,17.67
2022-12-03T15:49:39.589Z,19.47
2022-12-03T15:52:07.750Z,19.17
2022-12-03T15:54:34.623Z,21.27
2022-12-03T15:57:01.484Z,20.57
2022-12-03T15:59:28.244Z,18.43
2022-12-03T16:01:55.177Z,20.83
2022-12-03T16:04:22.045Z,20.30
2022-12-03T16:06:48.858Z,22.27
2022-12-03T16:09:15.635Z,20.43
2022-12-03T16:11:42.654Z,19.23
2022-12-03T16:14:09.440Z,21.30
2022-12-03T16:16:36.391Z,21.67
2022-12-03T16:19:03.567Z,19.90
2022-12-03T16:21:34.919Z,20.00
2022-12-03T16:24:01.914Z,20.50
2022-12-03T16:26:29.052Z,19.03
2022-12-03T16:28:56.016Z,18.73
2022-12-03T16:31:23.176Z,20.80
2022-12-03T16:33:50.614Z,21.20
2022-12-03T16:36:18.362Z,21.83
2022-12-03T16:38:45.262Z,18.63
2022-12-03T16:41:12.103Z,20.37
2022-12-03T16:43:39.032Z,19.87
2022-12-03T16:46:27.587Z,20.07
2022-12-03T16:48:58.999Z,18.80
2022-12-03T16:51:27.870Z,18.50
2022-12-03T16:53:55.037Z,18.63
2022-12-03T16:56:25.619Z,19.03
2022-12-03T16:58:52.376Z,19.17
2022-12-03T17:01:23.410Z,21.83
2022-12-03T17:03:51.296Z,20.20
2022-12-03T17:06:18.081Z,19.43
2022-12-03T17:08:49.372Z,20.83
2022-12-03T17:11:17.586Z,20.93
2022-12-03T17:13:45.466Z,21.47
2022-12-03T17:16:12.415Z,20.60
2022-12-03T17:18:39.213Z,22.13
2022-12-03T17:21:06.573Z,23.27
2022-12-03T17:23:33.325Z,22.27
2022-12-03T17:26:00.141Z,22.77
2022-12-03T17:28:27.005Z,22.87
2022-12-03T17:30:53.886Z,22.07
2022-12-03T17:33:20.744Z,23.57
2022-12-03T17:35:47.560Z,22.37
2022-12-03T17:38:14.509Z,23.50
2022-12-03T17:40:41.431Z,22.07
2022-12-03T17:43:08.350Z,22.37
2022-12-03T17:45:36.655Z,23.90
2022-12-03T17:48:03.540Z,22.73
2022-12-03T17:50:30.367Z,22.20
2022-12-03T17:52:57.113Z,22.90
2022-12-03T17:55:31.334Z,21.50
2022-12-03T17:58:04.544Z,21.27
2022-12-03T18:00:32.391Z,20.07
2022-12-03T18:02:59.284Z,24.37
2022-12-03T18:05:26.161Z,24.40
2022-12-03T18:07:53.177Z,20.17
2022-12-03T18:10:20.000Z,22.33
2022-12-03T18:12:46.864Z,21.47
2022-12-03T18:15:13.704Z,21.30
2022-12-03T18:17:40.638Z,20.37
2022-12-03T18:20:08.262Z,24.70
2022-12-03T18:22:35.564Z,23.87
2022-12-03T18:25:02.653Z,23.57
2022-12-03T18:27:29.580Z,24.10
2022-12-03T18:29:56.610Z,21.97
2022-12-03T18:32:29.349Z,24.37
2022-12-03T18:34:58.130Z,20.90
2022-12-03T18:37:28.757Z,22.37
2022-12-03T18:39:57.886Z,21.77
2022-12-03T18:42:25.620Z,22.97
2022-12-03T18:44:56.316Z,21.27
2022-12-03T18:47:29.000Z,20.10
2022-12-03T18:49:56.886Z,21.70
2022-12-03T18:52:25.120Z,20.97
2022-12-03T18:54:52.070Z,20.57
2022-12-03T18:57:19.022Z,21.57
2022-12-03T18:59:46.166Z,23.50
2022-12-03T19:02:38.944Z,22.47
2022-12-03T19:05:05.323Z,22.90
2022-12-03T19:07:32.210Z,23.27
2022-12-03T19:09:59.116Z,22.10
2022-12-03T19:12:25.911Z,24.00
2022-12-03T19:14:52.841Z,24.03
2022-12-03T19:17:19.862Z,23.53
2022-12-03T19:19:46.731Z,23.27
2022-12-03T19:22:13.543Z,23.40
2022-12-03T19:24:40.403Z,21.07
2022-12-03T19:27:07.372Z,21.77
2022-12-03T19:29:34.472Z,20.63
2022-12-03T19:32:01.307Z,20.50
2022-12-03T19:34:28.380Z,23.30
2022-12-03T19:36:55.205Z,21.57
2022-12-03T19:39:22.091Z,20.40
2022-12-03T19:41:48.901Z,20.73
2022-12-03T19:44:17.886Z,21.20
2022-12-03T19:46:45.650Z,22.13
2022-12-03T19:49:12.586Z,20.80
2022-12-03T19:51:41.440Z,23.20
2022-12-03T19:54:14.566Z,22.73
2022-12-03T19:56:41.684Z,23.63
2022-12-03T19:59:08.726Z,23.07
2022-12-03T20:01:36.629Z,22.57
2022-12-03T20:04:04.545Z,24.10
2022-12-03T20:06:35.135Z,23.40
2022-12-03T20:09:11.873Z,24.70
2022-12-03T20:11:41.889Z,23.30
2022-12-03T20:14:15.352Z,24.00
2022-12-03T20:16:43.031Z,24.37
2022-12-03T20:19:14.014Z,26.23
2022-12-03T20:21:43.106Z,24.57
2022-12-03T20:24:15.255Z,24.17
2022-12-03T20:26:43.280Z,23.40
2022-12-03T20:29:10.082Z,24.00
2022-12-03T20:31:37.089Z,23.20
2022-12-03T20:34:04.738Z,24.87
2022-12-03T20:36:32.629Z,25.10
2022-12-03T20:39:04.869Z,23.30
2022-12-03T20:41:35.130Z,26.13
2022-12-03T20:44:03.089Z,24.53
2022-12-03T20:46:31.548Z,26.87
2022-12-03T20:48:59.526Z,22.93
2022-12-03T20:51:29.879Z,23.90
2022-12-03T20:53:59.449Z,25.53
2022-12-03T20:56:33.732Z,25.17
2022-12-03T20:59:04.885Z,26.17
2022-12-03T21:01:32.764Z,23.37
2022-12-03T21:03:59.767Z,24.67
2022-12-03T21:06:29.750Z,26.00
2022-12-03T21:08:59.428Z,27.10
2022-12-03T21:11:29.910Z,25.07
2022-12-03T21:13:58.761Z,26.67
2022-12-03T21:16:59.421Z,25.33
2022-12-03T21:19:17.745Z,25.83
2022-12-03T21:21:44.637Z,25.60
2022-12-03T21:24:13.433Z,27.87
2022-12-03T21:26:41.421Z,25.83
2022-12-03T21:29:08.642Z,27.83
2022-12-03T21:31:37.286Z,26.23
2022-12-03T21:34:05.128Z,25.57
2022-12-03T21:36:32.334Z,26.03
2022-12-03T21:38:59.201Z,24.93
2022-12-03T21:41:26.135Z,24.43
2022-12-03T21:43:52.980Z,24.73
2022-12-03T21:47:08.339Z,26.73
2022-12-03T21:49:06.700Z,22.40
2022-12-03T21:51:33.586Z,24.77
2022-12-03T21:54:00.569Z,23.33
2022-12-03T21:56:30.268Z,25.53
2022-12-03T21:58:57.411Z,28.50
2022-12-03T22:01:25.475Z,25.07
2022-12-03T22:03:52.374Z,24.30
2022-12-03T22:06:19.395Z,24.07
2022-12-03T22:08:47.189Z,23.53
2022-12-03T22:11:23.404Z,25.20
2022-12-03T22:13:51.243Z,25.50
2022-12-03T22:16:21.446Z,23.33
2022-12-03T22:18:49.143Z,25.97
2022-12-03T22:21:19.712Z,23.83
2022-12-03T22:23:46.600Z,24.67
2022-12-03T22:26:16.803Z,24.47
2022-12-03T22:28:49.235Z,25.37
2022-12-03T22:31:18.212Z,24.43
2022-12-03T22:33:48.183Z,25.77
2022-12-03T22:36:20.999Z,24.83
2022-12-03T22:38:51.923Z,24.70
2022-12-03T22:41:19.582Z,23.67
2022-12-03T22:43:48.165Z,22.87
2022-12-03T22:46:16.910Z,24.90
2022-12-03T22:48:46.591Z,22.23
2022-12-03T22:51:18.108Z,24.07
2022-12-03T22:53:45.235Z,25.07
2022-12-03T22:56:13.048Z,24.90
2022-12-03T22:58:41.124Z,25.20
2022-12-03T23:01:08.278Z,25.00
2022-12-03T23:03:35.960Z,26.10
2022-12-03T23:06:10.949Z,26.20
2022-12-03T23:08:38.310Z,26.07
2022-12-03T23:11:05.794Z,27.47
2022-12-03T23:13:33.794Z,27.70
2022-12-03T23:16:02.496Z,24.40
2022-12-03T23:18:29.374Z,24.50
2022-12-03T23:20:57.118Z,23.63
2022-12-03T23:23:27.353Z,22.03
2022-12-03T23:26:04.452Z,26.10
2022-12-03T23:28:34.494Z,23.03
2022-12-03T23:31:02.190Z,26.93
2022-12-03T23:33:31.944Z,26.13
2022-12-03T23:36:05.419Z,26.43
2022-12-03T23:38:32.372Z,27.43
2022-12-03T23:41:08.411Z,26.53
2022-12-03T23:43:35.346Z,26.53
2022-12-03T23:46:24.505Z,27.20
2022-12-03T23:48:51.898Z,24.17
2022-12-03T23:51:25.323Z,26.40
2022-12-03T23:53:54.682Z,24.97
2022-12-03T23:56:26.338Z,26.57
2022-12-03T23:58:53.264Z,25.60
